Time;durP1;ratioP1;P1;durP2;ratioP2;P2;SDS_P1;SDS_P2;PMS_P1;PMS_P2;Temp;Humidity;BMP_temperature;BMP_pressure;BME280_temperature;BME280_humidity;BME280_pressure;Samples;Min_cycle;Max_cycle;Signal;HPM_P1;HPM_P2
2022/02/22 00:00:17;;;;;;;;;7.75;6.00;;;;;8.97;66.72;101762.91;5034205;28;45464;-87
2022/02/22 00:02:44;;;;;;;;;9.00;7.50;;;;;8.26;67.02;101634.72;5034118;28;45577;-85
2022/02/22 00:05:10;;;;;;;;;10.00;7.75;;;;;9.02;66.80;101779.78;5034055;28;45365;-93
2022/02/22 00:07:36;;;;;;;;;10.50;6.50;;;;;8.20;66.93;101643.94;5016353;28;46064;-90
2022/02/22 00:10:01;;;;;;;;;11.00;7.00;;;;;8.96;66.99;101778.50;5036922;28;45261;-80
2022/02/22 00:12:27;;;;;;;;;8.50;7.00;;;;;8.68;67.45;101726.25;5038781;28;45316;-81
2022/02/22 00:14:52;;;;;;;;;9.00;7.00;;;;;8.85;67.53;101779.63;5038603;28;45423;-81
2022/02/22 00:17:17;;;;;;;;;11.33;7.67;;;;;8.55;67.62;101736.81;5038476;28;46346;-83
2022/02/22 00:19:43;;;;;;;;;9.50;8.25;;;;;8.87;67.49;101794.63;5020072;28;45873;-85
2022/02/22 00:22:08;;;;;;;;;9.75;7.75;;;;;8.55;67.56;101740.34;5019482;28;45505;-81
2022/02/22 00:24:34;;;;;;;;;9.50;7.00;;;;;8.31;67.73;101700.47;5037776;28;45612;-86
2022/02/22 00:26:59;;;;;;;;;10.25;7.50;;;;;8.64;67.76;101760.94;5020055;28;47297;-91
2022/02/22 00:29:25;;;;;;;;;12.75;9.00;;;;;8.78;67.71;101792.38;5037648;28;45610;-81
2022/02/22 00:31:50;;;;;;;;;8.50;7.00;;;;;8.77;67.99;101793.19;5037943;28;45298;-80
2022/02/22 00:34:16;;;;;;;;;5.50;5.50;;;;;8.75;68.13;101793.91;5018982;28;45459;-80
2022/02/22 00:36:43;;;;;;;;;12.50;8.75;;;;;8.11;68.08;101694.03;5039071;28;45543;-82
2022/02/22 00:39:09;;;;;;;;;11.50;7.50;;;;;8.72;68.29;101802.50;5037991;28;45759;-82
2022/02/22 00:41:34;;;;;;;;;8.75;7.25;;;;;8.22;68.03;101723.47;5038800;28;45657;-87
2022/02/22 00:43:59;;;;;;;;;15.00;8.75;;;;;8.28;68.21;101740.47;5038573;28;45386;-90
2022/02/22 00:46:25;;;;;;;;;12.33;7.67;;;;;8.31;68.26;101754.56;5038982;28;46335;-91
2022/02/22 00:48:51;;;;;;;;;8.25;5.00;;;;;8.68;68.37;101816.25;5039385;28;45474;-92
2022/02/22 00:51:16;;;;;;;;;8.00;6.75;;;;;8.32;68.58;101749.41;5038595;28;45276;-94
2022/02/22 00:53:41;;;;;;;;;8.50;7.00;;;;;8.33;68.33;101756.47;5038922;28;45385;-81
2022/02/22 00:56:07;;;;;;;;;9.00;7.67;;;;;8.06;68.33;101716.44;5039202;28;46097;-91
2022/02/22 00:58:32;;;;;;;;;14.50;10.50;;;;;8.20;68.60;101741.72;5039209;28;45472;-82
2022/02/22 01:00:57;;;;;;;;;14.00;8.25;;;;;8.42;68.76;101798.03;5037465;28;45440;-81
2022/02/22 01:03:23;;;;;;;;;13.75;9.00;;;;;8.45;68.81;101799.13;5037474;28;45504;-80
2022/02/22 01:05:48;;;;;;;;;11.00;4.50;;;;;8.37;68.75;101797.75;5036761;28;45505;-81
2022/02/22 01:08:14;;;;;;;;;8.25;6.25;;;;;8.33;68.92;101795.75;5021342;28;46188;-93
2022/02/22 01:10:39;;;;;;;;;12.75;9.75;;;;;7.51;68.56;101668.59;5041209;28;45352;-85
2022/02/22 01:13:04;;;;;;;;;9.00;8.00;;;;;7.93;69.13;101729.56;5039046;28;45433;-93
2022/02/22 01:15:30;;;;;;;;;8.00;5.25;;;;;7.66;68.98;101687.84;5039123;28;45651;-81
2022/02/22 01:17:56;;;;;;;;;12.00;8.75;;;;;8.39;69.41;101809.25;5021907;28;45492;-82
2022/02/22 01:20:21;;;;;;;;;13.25;7.50;;;;;8.26;69.02;101801.44;5038975;28;45384;-93
2022/02/22 01:22:51;;;;;;;;;17.75;9.25;;;;;7.89;69.11;101743.31;5038374;28;45354;-91
2022/02/22 01:25:17;;;;;;;;;9.25;7.75;;;;;8.31;69.20;101847.13;5038421;28;45632;-86
2022/02/22 01:27:42;;;;;;;;;9.50;8.75;;;;;7.97;69.35;101779.59;5038911;28;45409;-81
2022/02/22 01:30:08;;;;;;;;;8.00;7.00;;;;;7.86;69.62;101759.72;5038907;28;45483;-83
2022/02/22 01:32:33;;;;;;;;;15.50;10.00;;;;;7.47;69.30;101690.13;5039299;28;45436;-92
2022/02/22 01:34:59;;;;;;;;;9.75;8.00;;;;;8.26;69.32;101833.75;5038930;28;46224;-85
2022/02/22 01:37:24;;;;;;;;;9.25;7.75;;;;;7.74;69.74;101745.91;5038402;28;45687;-80
2022/02/22 01:39:50;;;;;;;;;8.33;8.00;;;;;8.12;69.51;101816.28;5039084;28;45320;-87
2022/02/22 01:42:15;;;;;;;;;7.50;5.75;;;;;7.25;69.32;101669.59;5040992;28;45673;-82
2022/02/22 01:44:40;;;;;;;;;8.50;7.50;;;;;8.15;69.46;101841.78;5039970;28;45518;-83
2022/02/22 01:47:07;;;;;;;;;8.00;7.00;;;;;7.63;69.36;101739.97;5041853;28;45376;-91
2022/02/22 01:49:33;;;;;;;;;11.00;8.00;;;;;7.73;69.46;101763.31;5039697;28;44963;-92
2022/02/22 01:52:02;;;;;;;;;9.75;7.50;;;;;7.95;69.66;101804.78;5022261;28;44901;-91
2022/02/22 01:54:27;;;;;;;;;15.00;9.00;;;;;7.50;69.62;101734.81;5039817;28;45481;-87
2022/02/22 01:56:53;;;;;;;;;9.00;8.00;;;;;8.05;69.93;101842.91;5039571;28;45332;-92
2022/02/22 01:59:20;;;;;;;;;8.50;7.25;;;;;8.03;70.03;101844.53;5040025;28;44647;-82
2022/02/22 02:01:46;;;;;;;;;9.00;7.75;;;;;7.60;70.00;101771.19;5040289;28;45907;-80
2022/02/22 02:04:12;;;;;;;;;9.00;8.75;;;;;7.98;69.97;101836.41;5040088;28;45475;-81
2022/02/22 02:06:38;;;;;;;;;9.00;7.00;;;;;7.80;69.91;101803.84;5040567;28;45230;-85
2022/02/22 02:09:05;;;;;;;;;13.00;8.50;;;;;7.61;70.23;101791.31;5039584;28;45266;-83
2022/02/22 02:11:45;;;;;;;;;12.00;9.50;;;;;7.95;70.10;101853.63;5039966;28;45518;-84
2022/02/22 02:14:11;;;;;;;;;12.75;8.75;;;;;7.37;70.23;101746.19;5040150;28;45548;-81
2022/02/22 02:16:36;;;;;;;;;13.25;8.25;;;;;7.47;70.43;101773.81;5041390;28;45420;-82
2022/02/22 02:19:03;;;;;;;;;9.00;7.50;;;;;7.85;70.35;101843.38;5039963;28;45253;-85
2022/02/22 02:21:28;;;;;;;;;13.00;9.75;;;;;7.75;70.26;101826.19;5022345;28;45593;-81
2022/02/22 02:23:54;;;;;;;;;15.00;9.25;;;;;7.30;70.41;101754.47;5040582;28;46019;-85
2022/02/22 02:26:19;;;;;;;;;10.25;9.50;;;;;7.07;70.29;101729.44;5041110;28;45301;-83
2022/02/22 02:28:44;;;;;;;;;11.67;9.67;;;;;7.54;70.58;101807.44;5040919;28;45520;-90
2022/02/22 02:31:10;;;;;;;;;12.67;8.00;;;;;7.22;70.27;101759.19;5040182;28;45297;-81
2022/02/22 02:33:35;;;;;;;;;14.50;7.25;;;;;7.80;70.57;101863.13;5020563;28;46992;-84
2022/02/22 02:36:00;;;;;;;;;8.67;6.67;;;;;6.56;70.66;101639.06;5039023;28;45312;-92
2022/02/22 02:38:26;;;;;;;;;9.00;7.50;;;;;7.53;70.82;101818.69;5038671;28;45206;-80
2022/02/22 02:40:51;;;;;;;;;13.75;10.75;;;;;7.51;70.71;101817.69;5039378;28;45472;-85
2022/02/22 02:43:17;;;;;;;;;13.25;8.75;;;;;7.11;70.98;101733.19;5039393;28;45373;-81
2022/02/22 02:45:42;;;;;;;;;8.67;8.00;;;;;7.25;71.08;101758.50;5038567;28;45328;-88
2022/02/22 02:48:07;;;;;;;;;14.00;6.67;;;;;7.82;71.04;101866.72;5039766;28;45487;-90
2022/02/22 02:50:34;;;;;;;;;12.75;8.00;;;;;7.24;70.65;101764.50;5037877;28;45675;-83
2022/02/22 02:52:59;;;;;;;;;10.25;8.50;;;;;7.43;70.87;101809.34;5041759;28;45509;-90
2022/02/22 02:55:24;;;;;;;;;9.75;8.25;;;;;7.21;71.07;101782.63;5040466;28;45503;-81
2022/02/22 02:57:50;;;;;;;;;8.33;6.00;;;;;7.17;70.99;101785.84;5042256;28;44885;-82
2022/02/22 03:00:15;;;;;;;;;7.33;6.33;;;;;7.29;71.07;101815.41;5041634;28;45594;-80
2022/02/22 03:02:41;;;;;;;;;11.50;9.25;;;;;7.19;71.10;101805.13;5043871;28;46219;-80
2022/02/22 03:05:09;;;;;;;;;12.50;6.00;;;;;7.34;71.11;101821.84;5043675;28;45270;-86
2022/02/22 03:07:34;;;;;;;;;12.25;7.25;;;;;6.71;71.20;101731.50;5024646;28;45372;-84
2022/02/22 03:10:00;;;;;;;;;11.00;8.50;;;;;7.59;71.41;101881.88;5042904;28;45288;-88
2022/02/22 03:12:26;;;;;;;;;11.25;8.00;;;;;7.35;71.28;101848.91;5041809;28;45532;-82
2022/02/22 03:14:53;;;;;;;;;8.75;6.75;;;;;7.47;71.64;101860.16;5041189;28;45538;-86
2022/02/22 03:17:20;;;;;;;;;12.50;9.50;;;;;7.14;71.26;101794.41;5039461;28;44761;-87
2022/02/22 03:19:45;;;;;;;;;13.25;9.75;;;;;7.14;71.44;101783.97;5036957;28;44775;-85
2022/02/22 03:22:10;;;;;;;;;11.33;6.00;;;;;7.08;71.47;101788.75;5035936;28;45556;-85
2022/02/22 03:24:36;;;;;;;;;13.67;10.00;;;;;7.33;71.64;101838.31;5035771;28;45357;-90
2022/02/22 03:27:01;;;;;;;;;8.50;7.00;;;;;6.40;71.56;101670.19;5035589;28;45455;-92
2022/02/22 03:29:26;;;;;;;;;12.50;7.75;;;;;7.64;71.75;101885.69;5035426;28;45282;-84
2022/02/22 03:31:51;;;;;;;;;12.67;7.67;;;;;7.46;71.57;101853.09;5035311;28;46351;-84
2022/02/22 03:34:17;;;;;;;;;9.67;7.33;;;;;7.08;71.37;101782.63;5035224;28;45379;-84
2022/02/22 03:36:43;;;;;;;;;11.25;9.25;;;;;7.16;71.68;101792.78;5017259;28;45556;-91
2022/02/22 03:39:09;;;;;;;;;19.75;10.25;;;;;7.62;71.48;101871.59;5034760;28;45460;-83
2022/02/22 03:41:34;;;;;;;;;12.00;10.25;;;;;7.61;71.78;101881.97;5034747;28;46274;-87
2022/02/22 03:43:59;;;;;;;;;14.00;10.25;;;;;7.05;71.63;101791.19;5034961;28;45428;-91
2022/02/22 03:46:25;;;;;;;;;13.50;10.50;;;;;7.31;71.67;101846.88;5041557;28;45518;-87
2022/02/22 03:48:50;;;;;;;;;9.50;7.25;;;;;7.33;71.63;101840.94;5041702;28;45242;-84
2022/02/22 03:51:16;;;;;;;;;16.75;12.25;;;;;7.44;71.96;101849.50;5041140;28;46736;-80
2022/02/22 03:53:41;;;;;;;;;16.00;12.25;;;;;7.43;71.79;101859.03;5022755;28;45392;-90
2022/02/22 03:56:06;;;;;;;;;7.00;6.25;;;;;6.96;71.83;101794.09;5041292;28;45532;-91
2022/02/22 03:58:32;;;;;;;;;17.67;12.00;;;;;7.46;71.92;101892.34;5041214;28;45559;-81
2022/02/22 04:00:57;;;;;;;;;10.25;10.25;;;;;6.75;72.26;101773.47;5041019;28;46144;-82
2022/02/22 04:03:22;;;;;;;;;8.00;8.00;;;;;6.59;72.27;101735.00;5044264;28;45727;-84
2022/02/22 04:05:48;;;;;;;;;10.75;8.75;;;;;7.01;72.15;101801.34;5044246;28;45401;-92
2022/02/22 04:08:14;;;;;;;;;12.50;8.50;;;;;7.17;72.47;101818.13;5044995;28;45194;-81
2022/02/22 04:10:39;;;;;;;;;13.25;8.75;;;;;7.61;72.22;101880.25;5044071;28;46383;-80
2022/02/22 04:13:05;;;;;;;;;13.00;8.75;;;;;6.56;71.89;101695.63;5044765;28;44771;-90
2022/02/22 04:15:30;;;;;;;;;13.00;8.00;;;;;7.32;71.73;101819.94;5044961;28;45301;-90
2022/02/22 04:17:55;;;;;;;;;11.50;9.75;;;;;7.44;71.93;101834.72;5044647;28;45578;-86
2022/02/22 04:20:21;;;;;;;;;9.50;8.75;;;;;7.70;71.87;101888.69;5043122;28;46526;-87
2022/02/22 04:22:46;;;;;;;;;15.00;13.00;;;;;7.23;71.25;101791.47;5043305;28;45369;-93
2022/02/22 04:25:12;;;;;;;;;12.25;10.25;;;;;6.70;71.69;101714.00;5044950;28;45292;-81
2022/02/22 04:27:38;;;;;;;;;12.75;9.00;;;;;7.19;71.86;101807.75;5044868;28;45191;-82
2022/02/22 04:30:07;;;;;;;;;11.00;8.50;;;;;7.32;72.00;101836.50;5046127;28;45321;-82
2022/02/22 04:32:33;;;;;;;;;14.00;9.50;;;;;7.03;71.81;101789.28;5043167;28;45359;-93
2022/02/22 04:34:58;;;;;;;;;8.00;7.50;;;;;7.54;71.72;101864.97;5043791;28;45360;-89
2022/02/22 04:37:24;;;;;;;;;6.75;6.25;;;;;6.89;71.67;101747.44;5045403;28;45493;-81
2022/02/22 04:39:54;;;;;;;;;11.75;9.25;;;;;7.33;71.62;101814.78;5046318;28;45363;-92
2022/02/22 04:42:20;;;;;;;;;14.25;10.25;;;;;7.23;71.34;101792.38;5043996;28;45257;-93
2022/02/22 04:44:46;;;;;;;;;13.00;10.00;;;;;7.59;71.61;101858.34;5041808;28;45492;-90
2022/02/22 04:47:12;;;;;;;;;9.00;8.00;;;;;6.62;71.08;101677.75;5023252;28;45329;-82
2022/02/22 04:49:38;;;;;;;;;9.75;8.00;;;;;7.88;71.43;101902.06;5041447;28;45569;-83
2022/02/22 04:52:04;;;;;;;;;13.50;10.00;;;;;6.82;71.35;101707.78;5040855;28;45799;-82
2022/02/22 04:54:30;;;;;;;;;8.25;7.00;;;;;8.00;71.18;101904.56;5041143;28;45309;-83
2022/02/22 04:56:55;;;;;;;;;11.25;9.25;;;;;7.87;70.99;101884.53;5020415;28;45501;-81
2022/02/22 04:59:20;;;;;;;;;12.75;10.25;;;;;7.79;70.92;101869.19;5037445;28;46386;-83
2022/02/22 05:01:46;;;;;;;;;11.00;8.25;;;;;7.56;70.78;101836.28;5037968;28;45500;-90
2022/02/22 05:04:11;;;;;;;;;12.50;9.50;;;;;8.01;71.06;101917.72;5037631;28;45373;-82
2022/02/22 05:06:37;;;;;;;;;11.25;8.00;;;;;8.00;70.67;101908.06;5019646;28;45480;-83
2022/02/22 05:09:03;;;;;;;;;8.25;4.25;;;;;7.97;70.72;101906.97;5036963;28;45483;-88
2022/02/22 05:11:29;;;;;;;;;10.00;9.00;;;;;7.58;70.97;101864.34;5019298;28;45750;-80
2022/02/22 05:13:54;;;;;;;;;13.50;8.50;;;;;7.88;71.03;101916.84;5040162;28;45529;-84
2022/02/22 05:16:19;;;;;;;;;11.75;8.00;;;;;7.33;71.14;101829.56;5041660;28;44830;-87
2022/02/22 05:18:45;;;;;;;;;9.75;8.50;;;;;7.54;71.02;101861.44;5042285;28;46487;-81
2022/02/22 05:21:10;;;;;;;;;10.67;9.00;;;;;7.37;71.17;101827.25;5025454;28;45364;-90
2022/02/22 05:23:35;;;;;;;;;12.25;10.25;;;;;7.51;70.95;101830.78;5042735;28;45301;-84
2022/02/22 05:26:09;;;;;;;;;8.75;7.25;;;;;7.54;71.40;101827.44;5042435;28;45198;-95
2022/02/22 05:28:35;;;;;;;;;8.25;7.50;;;;;8.05;71.08;101915.31;5043033;28;45353;-92
2022/02/22 05:31:00;;;;;;;;;14.00;7.50;;;;;8.07;70.99;101914.59;5042116;28;45456;-86
2022/02/22 05:33:26;;;;;;;;;13.75;8.00;;;;;7.66;70.63;101831.75;5043494;28;45734;-88
2022/02/22 05:35:52;;;;;;;;;15.75;13.75;;;;;8.14;70.71;101921.16;5043561;28;45514;-82
2022/02/22 05:38:18;;;;;;;;;17.50;9.00;;;;;7.73;70.55;101838.25;5043729;28;46591;-83
2022/02/22 05:40:44;;;;;;;;;14.50;6.75;;;;;7.49;70.34;101796.69;5025440;28;45620;-84
2022/02/22 05:43:09;;;;;;;;;8.50;7.00;;;;;8.07;70.21;101904.13;5044414;28;45436;-82
2022/02/22 05:45:36;;;;;;;;;9.00;7.50;;;;;7.92;70.52;101884.81;5045010;28;45558;-81
2022/02/22 05:48:04;;;;;;;;;14.00;11.00;;;;;7.59;70.23;101828.66;5026702;28;46363;-87
2022/02/22 05:50:30;;;;;;;;;12.00;9.00;;;;;7.74;70.21;101854.09;5044356;28;45696;-82
2022/02/22 05:52:57;;;;;;;;;14.00;9.75;;;;;8.01;70.25;101915.13;5025365;28;44858;-89
2022/02/22 05:55:23;;;;;;;;;12.00;8.50;;;;;8.01;70.18;101916.84;5043294;28;45446;-91
2022/02/22 05:57:49;;;;;;;;;11.25;9.00;;;;;8.06;70.37;101912.78;5042897;28;45665;-88
2022/02/22 06:00:15;;;;;;;;;9.50;8.25;;;;;7.47;70.23;101802.59;5042167;28;45341;-82
2022/02/22 06:02:41;;;;;;;;;8.75;8.00;;;;;8.05;70.34;101897.91;5043746;28;45305;-89
2022/02/22 06:05:07;;;;;;;;;12.75;9.75;;;;;7.16;70.10;101750.97;5042216;28;45264;-85
2022/02/22 06:07:33;;;;;;;;;13.75;10.00;;;;;7.60;70.48;101820.00;5023561;28;46074;-80
2022/02/22 06:09:58;;;;;;;;;12.50;9.00;;;;;7.87;70.59;101881.00;5042777;28;44789;-81
2022/02/22 06:12:23;;;;;;;;;14.00;10.67;;;;;7.93;70.41;101877.09;5042171;28;45382;-82
2022/02/22 06:14:49;;;;;;;;;11.25;9.00;;;;;7.81;70.33;101847.50;5043422;28;45483;-89
2022/02/22 06:17:14;;;;;;;;;14.75;10.00;;;;;7.96;70.54;101884.22;5042521;28;45423;-81
2022/02/22 06:19:39;;;;;;;;;7.25;7.00;;;;;7.46;70.49;101792.94;5042951;28;45428;-88
2022/02/22 06:22:05;;;;;;;;;9.50;8.50;;;;;8.05;70.62;101895.28;5041736;28;45339;-89
2022/02/22 06:24:31;;;;;;;;;8.25;7.25;;;;;7.83;70.24;101866.84;5042272;28;45285;-83
2022/02/22 06:26:56;;;;;;;;;8.25;7.00;;;;;6.97;70.65;101724.44;5023212;28;46403;-82
2022/02/22 06:29:22;;;;;;;;;10.50;9.00;;;;;8.02;70.19;101905.53;5042137;28;45207;-84
2022/02/22 06:31:48;;;;;;;;;8.50;6.50;;;;;7.99;70.64;101894.91;5045397;28;45552;-83
2022/02/22 06:34:14;;;;;;;;;12.75;9.00;;;;;7.78;70.44;101852.53;5042525;28;45510;-82
2022/02/22 06:36:39;;;;;;;;;13.50;11.75;;;;;7.66;70.48;101833.47;5042325;28;45451;-83
2022/02/22 06:39:05;;;;;;;;;15.00;12.67;;;;;7.61;70.51;101820.09;5042823;28;45376;-83
2022/02/22 06:41:30;;;;;;;;;10.00;9.67;;;;;7.55;70.62;101814.47;5041791;28;45530;-83
2022/02/22 06:43:55;;;;;;;;;13.50;9.25;;;;;8.09;70.40;101907.75;5041581;28;45373;-87
2022/02/22 06:46:21;;;;;;;;;8.33;7.00;;;;;7.54;70.43;101807.44;5036945;28;45513;-80
2022/02/22 06:48:46;;;;;;;;;25.50;22.25;;;;;8.10;70.49;101912.19;5013830;28;45281;-89
2022/02/22 06:51:11;;;;;;;;;10.25;8.50;;;;;8.10;70.45;101909.56;5037746;28;45574;-85
2022/02/22 06:53:37;;;;;;;;;9.25;8.25;;;;;7.67;70.36;101841.41;5021808;28;45499;-87
2022/02/22 06:56:04;;;;;;;;;8.00;7.00;;;;;8.05;70.47;101910.97;5041137;28;46719;-80
2022/02/22 06:58:29;;;;;;;;;16.75;12.50;;;;;7.40;70.41;101796.09;5042595;28;45310;-89
2022/02/22 07:00:56;;;;;;;;;13.00;11.00;;;;;7.76;70.11;101869.88;5041918;28;45321;-82
2022/02/22 07:03:21;;;;;;;;;11.75;8.00;;;;;7.93;70.54;101892.81;5037959;28;45408;-81
2022/02/22 07:05:47;;;;;;;;;9.25;8.25;;;;;7.82;70.41;101870.25;5035330;28;46347;-84
2022/02/22 07:08:12;;;;;;;;;9.67;8.00;;;;;7.59;70.50;101831.28;5031519;28;45340;-86
2022/02/22 07:10:38;;;;;;;;;8.00;7.00;;;;;7.59;70.35;101834.78;5030569;28;45476;-79
2022/02/22 07:13:03;;;;;;;;;17.50;14.75;;;;;7.80;70.47;101866.66;5010528;28;45348;-87
2022/02/22 07:15:29;;;;;;;;;14.25;10.25;;;;;7.12;70.34;101740.22;5020355;28;47540;-92
2022/02/22 07:17:59;;;;;;;;;12.75;10.00;;;;;7.64;70.46;101820.28;5023475;28;45270;-92
2022/02/22 07:20:26;;;;;;;;;12.75;11.75;;;;;7.83;70.54;101850.22;5026317;28;45557;-79
2022/02/22 07:22:55;;;;;;;;;9.25;7.00;;;;;7.47;70.60;101772.13;5020884;28;45764;-79
2022/02/22 07:25:21;;;;;;;;;11.50;8.25;;;;;8.43;70.28;101915.16;5048709;28;46155;-80
2022/02/22 07:27:47;;;;;;;;;11.50;10.00;;;;;8.44;70.24;101922.19;5048411;28;45475;-79
2022/02/22 07:30:15;;;;;;;;;13.75;11.00;;;;;7.60;70.19;101763.34;5039487;28;45586;-79
2022/02/22 07:32:41;;;;;;;;;13.00;10.50;;;;;8.11;70.22;101842.38;5040501;28;45036;-80
2022/02/22 07:35:11;;;;;;;;;14.75;12.00;;;;;8.54;70.07;101906.22;5044426;28;45444;-79
2022/02/22 07:37:37;;;;;;;;;14.00;9.00;;;;;8.56;69.83;101914.16;5042537;28;45146;-82
2022/02/22 07:40:04;;;;;;;;;18.75;13.25;;;;;8.49;69.98;101900.69;5047385;28;45565;-81
2022/02/22 07:42:30;;;;;;;;;17.00;14.50;;;;;8.28;69.84;101860.97;5046841;28;45563;-79
2022/02/22 07:44:55;;;;;;;;;13.50;12.00;;;;;8.66;69.88;101925.28;5032197;28;45516;-79
2022/02/22 07:47:20;;;;;;;;;15.75;12.00;;;;;8.27;69.77;101842.50;5036143;28;45258;-80
2022/02/22 07:49:47;;;;;;;;;13.25;9.00;;;;;8.74;69.71;101929.31;5045225;28;45447;-80
2022/02/22 07:52:12;;;;;;;;;58.00;44.75;;;;;8.45;69.86;101869.88;5034291;28;45550;-81
2022/02/22 07:54:38;;;;;;;;;11.75;9.75;;;;;8.88;69.92;101922.28;5016741;28;46329;-87
2022/02/22 07:57:04;;;;;;;;;12.75;8.25;;;;;8.93;69.68;101919.94;5019766;28;44631;-81
2022/02/22 07:59:30;;;;;;;;;14.25;8.50;;;;;7.93;69.49;101743.59;5022377;28;45030;-83
2022/02/22 08:01:56;;;;;;;;;13.00;11.00;;;;;8.36;69.44;101816.91;5038223;28;44722;-81
2022/02/22 08:04:26;;;;;;;;;8.75;7.00;;;;;8.95;69.67;101915.69;5056990;28;45448;-80
2022/02/22 08:06:52;;;;;;;;;15.00;10.50;;;;;8.62;69.67;101849.94;5063839;28;45907;-81
2022/02/22 08:09:17;;;;;;;;;9.25;9.00;;;;;8.96;69.69;101901.75;5010545;28;45478;-80
2022/02/22 08:11:43;;;;;;;;;12.25;10.50;;;;;8.83;70.05;101876.53;5046947;28;45571;-83
2022/02/22 08:14:09;;;;;;;;;14.50;10.00;;;;;8.91;70.07;101884.84;5025188;28;46933;-80
2022/02/22 08:16:34;;;;;;;;;9.00;9.00;;;;;8.70;70.44;101842.53;5045070;28;45462;-82
2022/02/22 08:19:01;;;;;;;;;4.67;3.00;;;;;9.15;70.60;101907.25;5044364;28;45107;-82
2022/02/22 08:21:26;;;;;;;;;10.75;9.25;;;;;8.47;70.35;101773.97;5041739;28;45546;-84
2022/02/22 08:23:51;;;;;;;;;8.25;6.75;;;;;8.56;70.54;101807.63;5038339;28;46370;-83
2022/02/22 08:26:18;;;;;;;;;9.75;8.75;;;;;9.06;70.53;101864.75;5038694;28;45360;-83
2022/02/22 08:28:44;;;;;;;;;8.25;8.25;;;;;9.20;70.39;101873.44;5024194;28;45829;-88
2022/02/22 08:31:09;;;;;;;;;11.75;9.75;;;;;9.08;70.57;101854.38;5038217;28;45120;-91
2022/02/22 08:33:35;;;;;;;;;11.00;8.75;;;;;9.34;70.51;101889.97;5044099;28;47640;-88
2022/02/22 08:36:00;;;;;;;;;10.75;9.75;;;;;9.01;70.68;101817.31;5036307;28;45846;-82
2022/02/22 08:38:26;;;;;;;;;15.00;12.75;;;;;9.39;70.43;101899.03;5038991;28;45197;-84
2022/02/22 08:40:51;;;;;;;;;10.00;9.00;;;;;8.53;70.44;101731.50;5041663;28;45408;-82
2022/02/22 08:43:18;;;;;;;;;10.50;10.00;;;;;9.52;70.53;101904.16;5045016;28;45472;-83
2022/02/22 08:45:44;;;;;;;;;8.75;7.00;;;;;9.27;70.53;101849.38;5042674;28;45142;-82
2022/02/22 08:48:16;;;;;;;;;11.50;9.50;;;;;8.96;70.59;101778.50;5044678;28;44932;-92
2022/02/22 08:50:42;;;;;;;;;16.00;10.00;;;;;9.64;70.74;101898.72;5026374;28;45230;-87
2022/02/22 08:53:08;;;;;;;;;14.50;10.25;;;;;9.68;70.68;101877.97;5044080;28;46491;-83
2022/02/22 08:55:34;;;;;;;;;16.00;10.50;;;;;9.51;70.72;101835.03;5045054;28;45301;-89
2022/02/22 08:58:00;;;;;;;;;16.00;11.25;;;;;9.26;70.76;101775.03;5029573;28;45436;-87
2022/02/22 09:00:28;;;;;;;;;12.25;9.00;;;;;9.05;70.88;101716.09;5046278;28;45312;-90
2022/02/22 09:02:57;;;;;;;;;15.25;10.00;;;;;10.04;70.75;101865.06;5035039;28;47392;-91
2022/02/22 09:05:27;;;;;;;;;10.75;8.00;;;;;9.99;70.40;101859.56;5035147;28;45502;-87
2022/02/22 09:07:53;;;;;;;;;7.25;6.50;;;;;10.12;70.58;101871.66;5039755;28;45524;-92
2022/02/22 09:10:20;;;;;;;;;11.25;8.00;;;;;8.83;69.88;101679.03;5043809;28;45312;-90
2022/02/22 09:12:49;;;;;;;;;9.75;8.75;;;;;9.44;70.78;101764.66;5056675;28;46132;-94
2022/02/22 09:15:16;;;;;;;;;15.00;11.25;;;;;10.07;70.67;101874.03;5056434;28;45937;-87
2022/02/22 09:17:43;;;;;;;;;8.50;8.00;;;;;10.00;70.63;101865.72;5038697;28;45659;-89
2022/02/22 09:20:11;;;;;;;;;9.75;9.75;;;;;9.89;70.93;101853.72;5056649;28;45293;-91
2022/02/22 09:22:37;;;;;;;;;7.50;5.00;;;;;9.27;70.95;101758.47;5055829;28;47417;-86
2022/02/22 09:25:04;;;;;;;;;8.75;5.25;;;;;9.36;70.88;101751.91;5056161;28;45785;-87
2022/02/22 09:27:29;;;;;;;;;6.50;4.50;;;;;9.98;71.07;101859.47;5037905;28;45347;-87
2022/02/22 09:29:54;;;;;;;;;8.00;7.25;;;;;10.01;71.30;101865.81;5056706;28;45446;-90
2022/02/22 09:32:20;;;;;;;;;9.75;9.75;;;;;10.04;71.27;101862.44;5055937;28;47018;-87
2022/02/22 09:34:45;;;;;;;;;7.25;5.00;;;;;7.99;70.95;101495.28;5039103;28;45464;-90
2022/02/22 09:37:11;;;;;;;;;9.00;8.25;;;;;8.22;71.11;101564.63;5038554;28;45739;-92
2022/02/22 09:39:38;;;;;;;;;10.00;7.00;;;;;9.45;71.62;101768.16;5039878;28;45513;-86
2022/02/22 09:42:25;;;;;;;;;9.25;7.25;;;;;8.23;71.25;101558.63;5055290;28;46463;-90
2022/02/22 09:44:52;;;;;;;;;24.50;22.50;;;;;8.43;71.30;101538.81;5038162;28;45718;-91
2022/02/22 09:47:18;;;;;;;;;12.50;9.00;;;;;9.91;71.15;101805.72;5038051;28;45438;-92
2022/02/22 09:49:44;;;;;;;;;7.50;7.50;;;;;10.06;71.16;101803.03;5037684;28;45436;-89
2022/02/22 09:52:09;;;;;;;;;7.25;7.00;;;;;10.33;70.90;101833.41;5056822;28;45377;-88
2022/02/22 09:57:57;;;;;;;;;10.00;9.00;;;;;9.15;70.85;101597.78;5024071;23;45526;-90
2022/02/22 10:00:26;;;;;;;;;10.00;8.75;;;;;10.07;70.77;101710.28;5001574;28;45344;-92
2022/02/22 10:02:55;;;;;;;;;4.50;4.00;;;;;8.90;70.39;101466.22;4998246;28;47386;-89
2022/02/22 10:05:23;;;;;;;;;8.25;7.50;;;;;10.31;70.57;101682.66;5012523;28;45027;-93
2022/02/22 10:08:01;;;;;;;;;9.75;6.75;;;;;8.90;69.88;101435.66;5010395;28;45591;-93
2022/02/22 10:11:01;;;;;;;;;5.00;4.25;;;;;11.14;69.93;101810.38;5005257;28;45606;-91
2022/02/22 10:13:30;;;;;;;;;11.75;11.00;;;;;9.14;69.90;101450.84;5015407;28;46082;-92
2022/02/22 10:16:19;;;;;;;;;8.75;7.00;;;;;9.10;69.97;101480.34;5013170;28;45223;-92
2022/02/22 10:19:02;;;;;;;;;9.00;4.25;;;;;11.08;69.90;101821.50;5007618;28;44973;-93
2022/02/22 10:21:40;;;;;;;;;5.25;4.75;;;;;10.53;69.91;101699.50;5009726;28;45288;-92
2022/02/22 10:24:19;;;;;;;;;10.75;8.75;;;;;9.26;69.83;101469.84;5009824;28;46919;-91
2022/02/22 10:26:45;;;;;;;;;9.00;8.50;;;;;9.34;69.97;101504.34;5030185;28;45313;-92
2022/02/22 10:29:23;;;;;;;;;8.75;8.00;;;;;11.06;70.29;101819.63;5016054;28;45112;-92
2022/02/22 10:31:54;;;;;;;;;9.25;6.00;;;;;9.22;70.17;101483.63;5012521;28;45358;-92
2022/02/22 10:34:31;;;;;;;;;4.75;3.75;;;;;9.12;70.37;101489.22;5002214;28;47099;-93
2022/02/22 10:36:59;;;;;;;;;11.00;10.50;;;;;9.88;70.34;101599.84;5019770;28;45354;-93
2022/02/22 10:39:33;;;;;;;;;6.00;4.25;;;;;9.98;70.26;101617.88;5015169;28;44879;-90
2022/02/22 10:41:59;;;;;;;;;8.75;6.25;;;;;10.44;70.43;101678.94;5002443;28;45291;-92
2022/02/22 10:44:36;;;;;;;;;5.00;4.00;;;;;11.21;70.45;101830.91;4997318;28;47638;-92
2022/02/22 10:47:07;;;;;;;;;18.50;16.50;;;;;9.44;70.47;101531.13;5018301;28;45373;-91
2022/02/22 10:49:40;;;;;;;;;10.75;9.50;;;;;9.43;69.98;101525.81;4989257;28;45639;-89
2022/02/22 10:52:11;;;;;;;;;15.50;15.25;;;;;10.17;70.40;101675.78;5018511;28;45346;-89
2022/02/22 10:54:36;;;;;;;;;9.75;8.00;;;;;10.51;70.93;101737.97;4982630;28;47122;-89
2022/02/22 10:57:03;;;;;;;;;12.00;11.50;;;;;10.20;71.30;101694.34;4994600;28;44848;-89
2022/02/22 10:59:31;;;;;;;;;10.00;9.75;;;;;10.68;72.02;101773.88;4999746;28;45556;-92
2022/02/22 11:01:58;;;;;;;;;7.50;6.00;;;;;9.85;72.14;101621.59;4999684;28;45438;-89
2022/02/22 11:04:23;;;;;;;;;5.25;4.75;;;;;8.95;72.40;101457.75;4996548;28;47690;-90
2022/02/22 11:06:49;;;;;;;;;9.75;8.75;;;;;9.14;71.94;101458.72;4993636;28;45848;-89
2022/02/22 11:09:18;;;;;;;;;8.00;5.25;;;;;10.52;72.45;101693.34;4978767;28;45755;-89
2022/02/22 11:12:00;;;;;;;;;5.50;4.75;;;;;9.82;72.20;101575.09;4999307;28;45604;-89
2022/02/22 11:14:29;;;;;;;;;10.75;7.75;;;;;10.06;72.15;101632.31;4987301;28;48302;-89
2022/02/22 11:16:58;;;;;;;;;11.75;8.50;;;;;10.55;72.29;101705.75;4986548;28;45484;-93
2022/02/22 11:19:40;;;;;;;;;5.25;5.00;;;;;10.43;72.27;101679.75;5003748;28;45472;-91
2022/02/22 11:22:17;;;;;;;;;9.25;6.25;;;;;10.63;72.61;101721.91;5013017;28;45102;-89
2022/02/22 11:24:49;;;;;;;;;5.00;4.50;;;;;11.33;72.49;101799.94;5006482;28;47079;-89
2022/02/22 11:27:38;;;;;;;;;7.50;5.25;;;;;10.21;73.71;101591.03;5021952;28;45254;-90